sensor_id;sensor_type;location;lat;lon;timestamp;temperature;humidity
65239;SHT30;51827;51.186;6.926;2023-03-04T00:00:26;18.75;43.40
65239;SHT30;51827;51.186;6.926;2023-03-04T00:01:26;18.72;43.38
65239;SHT30;51827;51.186;6.926;2023-03-04T00:02:26;18.71;43.38
65239;SHT30;51827;51.186;6.926;2023-03-04T00:03:27;18.69;43.40
65239;SHT30;51827;51.186;6.926;2023-03-04T00:04:27;18.68;43.41
65239;SHT30;51827;51.186;6.926;2023-03-04T00:05:27;18.69;43.43
65239;SHT30;51827;51.186;6.926;2023-03-04T00:06:27;18.72;43.39
65239;SHT30;51827;51.186;6.926;2023-03-04T00:07:27;18.71;43.43
65239;SHT30;51827;51.186;6.926;2023-03-04T00:08:27;18.71;43.37
65239;SHT30;51827;51.186;6.926;2023-03-04T00:09:28;18.71;43.35
65239;SHT30;51827;51.186;6.926;2023-03-04T00:10:28;18.68;43.40
65239;SHT30;51827;51.186;6.926;2023-03-04T00:11:28;18.69;43.41
65239;SHT30;51827;51.186;6.926;2023-03-04T00:12:28;18.71;43.47
65239;SHT30;51827;51.186;6.926;2023-03-04T00:13:28;18.68;43.36
65239;SHT30;51827;51.186;6.926;2023-03-04T00:14:28;18.69;43.43
65239;SHT30;51827;51.186;6.926;2023-03-04T00:15:29;18.69;43.44
65239;SHT30;51827;51.186;6.926;2023-03-04T00:16:29;18.66;43.39
65239;SHT30;51827;51.186;6.926;2023-03-04T00:17:29;18.68;43.42
65239;SHT30;51827;51.186;6.926;2023-03-04T00:18:29;18.68;43.43
65239;SHT30;51827;51.186;6.926;2023-03-04T00:19:30;18.69;43.45
65239;SHT30;51827;51.186;6.926;2023-03-04T00:20:30;18.65;43.44
65239;SHT30;51827;51.186;6.926;2023-03-04T00:21:30;18.69;43.39
65239;SHT30;51827;51.186;6.926;2023-03-04T00:22:30;18.69;43.40
65239;SHT30;51827;51.186;6.926;2023-03-04T00:23:30;18.71;43.40
65239;SHT30;51827;51.186;6.926;2023-03-04T00:24:30;18.68;43.40
65239;SHT30;51827;51.186;6.926;2023-03-04T00:25:30;18.66;43.43
65239;SHT30;51827;51.186;6.926;2023-03-04T00:26:31;18.68;43.39
65239;SHT30;51827;51.186;6.926;2023-03-04T00:27:31;18.68;43.42
65239;SHT30;51827;51.186;6.926;2023-03-04T00:28:31;18.66;43.37
65239;SHT30;51827;51.186;6.926;2023-03-04T00:29:31;18.66;43.40
65239;SHT30;51827;51.186;6.926;2023-03-04T00:30:31;18.66;43.42
65239;SHT30;51827;51.186;6.926;2023-03-04T00:31:32;18.66;43.38
65239;SHT30;51827;51.186;6.926;2023-03-04T00:32:32;18.68;43.44
65239;SHT30;51827;51.186;6.926;2023-03-04T00:33:32;18.66;43.39
65239;SHT30;51827;51.186;6.926;2023-03-04T00:34:32;18.66;43.40
65239;SHT30;51827;51.186;6.926;2023-03-04T00:35:32;18.66;43.44
65239;SHT30;51827;51.186;6.926;2023-03-04T00:36:33;18.65;43.44
65239;SHT30;51827;51.186;6.926;2023-03-04T00:37:33;18.66;43.48
65239;SHT30;51827;51.186;6.926;2023-03-04T00:38:33;18.68;43.38
65239;SHT30;51827;51.186;6.926;2023-03-04T00:39:33;18.66;43.40
65239;SHT30;51827;51.186;6.926;2023-03-04T00:40:33;18.68;43.42
65239;SHT30;51827;51.186;6.926;2023-03-04T00:41:33;18.65;43.47
65239;SHT30;51827;51.186;6.926;2023-03-04T00:42:34;18.66;43.44
65239;SHT30;51827;51.186;6.926;2023-03-04T00:43:34;18.66;43.44
65239;SHT30;51827;51.186;6.926;2023-03-04T00:44:34;18.64;43.45
65239;SHT30;51827;51.186;6.926;2023-03-04T00:45:34;18.64;43.44
65239;SHT30;51827;51.186;6.926;2023-03-04T00:46:34;18.65;43.45
65239;SHT30;51827;51.186;6.926;2023-03-04T00:47:34;18.65;43.47
65239;SHT30;51827;51.186;6.926;2023-03-04T00:48:35;18.66;43.45
65239;SHT30;51827;51.186;6.926;2023-03-04T00:49:35;18.65;43.46
65239;SHT30;51827;51.186;6.926;2023-03-04T00:50:35;18.65;43.51
65239;SHT30;51827;51.186;6.926;2023-03-04T00:51:35;18.66;43.47
65239;SHT30;51827;51.186;6.926;2023-03-04T00:52:35;18.65;43.45
65239;SHT30;51827;51.186;6.926;2023-03-04T00:53:35;18.65;43.45
65239;SHT30;51827;51.186;6.926;2023-03-04T00:54:35;18.68;43.44
65239;SHT30;51827;51.186;6.926;2023-03-04T00:55:36;18.64;43.46
65239;SHT30;51827;51.186;6.926;2023-03-04T00:56:36;18.65;43.44
65239;SHT30;51827;51.186;6.926;2023-03-04T00:57:36;18.65;43.48
65239;SHT30;51827;51.186;6.926;2023-03-04T00:58:36;18.66;43.47
65239;SHT30;51827;51.186;6.926;2023-03-04T00:59:37;18.66;43.42
65239;SHT30;51827;51.186;6.926;2023-03-04T01:00:37;18.66;43.44
65239;SHT30;51827;51.186;6.926;2023-03-04T01:01:37;18.66;43.44
65239;SHT30;51827;51.186;6.926;2023-03-04T01:02:37;18.65;43.44
65239;SHT30;51827;51.186;6.926;2023-03-04T01:03:37;18.68;43.46
65239;SHT30;51827;51.186;6.926;2023-03-04T01:04:38;18.66;43.43
65239;SHT30;51827;51.186;6.926;2023-03-04T01:05:38;18.65;43.46
65239;SHT30;51827;51.186;6.926;2023-03-04T01:06:38;18.65;43.49
65239;SHT30;51827;51.186;6.926;2023-03-04T01:07:38;18.65;43.44
65239;SHT30;51827;51.186;6.926;2023-03-04T01:08:38;18.65;43.48
65239;SHT30;51827;51.186;6.926;2023-03-04T01:09:38;18.64;43.48
65239;SHT30;51827;51.186;6.926;2023-03-04T01:10:39;18.62;43.52
65239;SHT30;51827;51.186;6.926;2023-03-04T01:11:39;18.65;43.46
65239;SHT30;51827;51.186;6.926;2023-03-04T01:12:39;18.64;43.51
65239;SHT30;51827;51.186;6.926;2023-03-04T01:13:39;18.64;43.49
65239;SHT30;51827;51.186;6.926;2023-03-04T01:14:39;18.65;43.47
65239;SHT30;51827;51.186;6.926;2023-03-04T01:15:39;18.69;43.47
65239;SHT30;51827;51.186;6.926;2023-03-04T01:16:40;18.66;43.49
65239;SHT30;51827;51.186;6.926;2023-03-04T01:17:40;18.66;43.47
65239;SHT30;51827;51.186;6.926;2023-03-04T01:18:40;18.65;43.47
65239;SHT30;51827;51.186;6.926;2023-03-04T01:19:40;18.66;43.47
65239;SHT30;51827;51.186;6.926;2023-03-04T01:20:40;18.64;43.47
65239;SHT30;51827;51.186;6.926;2023-03-04T01:21:40;18.64;43.47
65239;SHT30;51827;51.186;6.926;2023-03-04T01:22:41;18.62;43.46
65239;SHT30;51827;51.186;6.926;2023-03-04T01:23:41;18.65;43.47
65239;SHT30;51827;51.186;6.926;2023-03-04T01:24:41;18.62;43.46
65239;SHT30;51827;51.186;6.926;2023-03-04T01:25:41;18.62;43.48
65239;SHT30;51827;51.186;6.926;2023-03-04T01:26:42;18.62;43.48
65239;SHT30;51827;51.186;6.926;2023-03-04T01:27:42;18.62;43.51
65239;SHT30;51827;51.186;6.926;2023-03-04T01:28:42;18.64;43.52
65239;SHT30;51827;51.186;6.926;2023-03-04T01:29:42;18.62;43.49
65239;SHT30;51827;51.186;6.926;2023-03-04T01:30:42;18.65;43.44
65239;SHT30;51827;51.186;6.926;2023-03-04T01:31:42;18.65;43.48
65239;SHT30;51827;51.186;6.926;2023-03-04T01:32:43;18.64;43.48
65239;SHT30;51827;51.186;6.926;2023-03-04T01:33:43;18.66;43.45
65239;SHT30;51827;51.186;6.926;2023-03-04T01:34:43;18.65;43.46
65239;SHT30;51827;51.186;6.926;2023-03-04T01:35:43;18.64;43.47
65239;SHT30;51827;51.186;6.926;2023-03-04T01:36:43;18.66;43.45
65239;SHT30;51827;51.186;6.926;2023-03-04T01:37:44;18.64;43.47
65239;SHT30;51827;51.186;6.926;2023-03-04T01:38:44;18.64;43.48
65239;SHT30;51827;51.186;6.926;2023-03-04T01:39:44;18.61;43.47
65239;SHT30;51827;51.186;6.926;2023-03-04T01:40:44;18.64;43.48
65239;SHT30;51827;51.186;6.926;2023-03-04T01:41:44;18.62;43.47
65239;SHT30;51827;51.186;6.926;2023-03-04T01:42:44;18.64;43.50
65239;SHT30;51827;51.186;6.926;2023-03-04T01:43:45;18.62;43.53
65239;SHT30;51827;51.186;6.926;2023-03-04T01:44:45;18.61;43.52
65239;SHT30;51827;51.186;6.926;2023-03-04T01:45:47;18.59;43.53
65239;SHT30;51827;51.186;6.926;2023-03-04T01:46:48;18.62;43.51
65239;SHT30;51827;51.186;6.926;2023-03-04T01:47:49;18.64;43.51
65239;SHT30;51827;51.186;6.926;2023-03-04T01:48:50;18.65;43.50
65239;SHT30;51827;51.186;6.926;2023-03-04T01:49:52;18.65;43.46
65239;SHT30;51827;51.186;6.926;2023-03-04T01:50:53;18.64;43.48
65239;SHT30;51827;51.186;6.926;2023-03-04T01:51:53;18.65;43.46
65239;SHT30;51827;51.186;6.926;2023-03-04T01:52:53;18.64;43.47
65239;SHT30;51827;51.186;6.926;2023-03-04T01:53:54;18.62;43.47
65239;SHT30;51827;51.186;6.926;2023-03-04T01:54:54;18.61;43.48
65239;SHT30;51827;51.186;6.926;2023-03-04T01:56:02;18.62;43.51
65239;SHT30;51827;51.186;6.926;2023-03-04T01:57:15;18.61;43.48
65239;SHT30;51827;51.186;6.926;2023-03-04T01:58:15;18.62;43.48
65239;SHT30;51827;51.186;6.926;2023-03-04T02:00:29;18.62;43.46
65239;SHT30;51827;51.186;6.926;2023-03-04T02:01:30;18.65;43.48
65239;SHT30;51827;51.186;6.926;2023-03-04T02:02:30;18.64;43.46
65239;SHT30;51827;51.186;6.926;2023-03-04T02:03:30;18.65;43.43
65239;SHT30;51827;51.186;6.926;2023-03-04T02:04:31;18.65;43.51
65239;SHT30;51827;51.186;6.926;2023-03-04T02:05:31;18.64;43.48
65239;SHT30;51827;51.186;6.926;2023-03-04T02:06:32;18.64;43.50
65239;SHT30;51827;51.186;6.926;2023-03-04T02:07:33;18.64;43.47
65239;SHT30;51827;51.186;6.926;2023-03-04T02:08:33;18.64;43.50
65239;SHT30;51827;51.186;6.926;2023-03-04T02:09:33;18.64;43.52
65239;SHT30;51827;51.186;6.926;2023-03-04T02:10:33;18.62;43.58
65239;SHT30;51827;51.186;6.926;2023-03-04T02:11:34;18.62;43.55
65239;SHT30;51827;51.186;6.926;2023-03-04T02:12:35;18.61;43.55
65239;SHT30;51827;51.186;6.926;2023-03-04T02:13:35;18.61;43.58
65239;SHT30;51827;51.186;6.926;2023-03-04T02:14:35;18.61;43.54
65239;SHT30;51827;51.186;6.926;2023-03-04T02:15:37;18.62;43.57
65239;SHT30;51827;51.186;6.926;2023-03-04T02:16:37;18.62;43.53
65239;SHT30;51827;51.186;6.926;2023-03-04T02:17:38;18.65;43.55
65239;SHT30;51827;51.186;6.926;2023-03-04T02:18:38;18.64;43.53
65239;SHT30;51827;51.186;6.926;2023-03-04T02:19:49;18.64;43.53
65239;SHT30;51827;51.186;6.926;2023-03-04T02:21:37;18.64;43.53
65239;SHT30;51827;51.186;6.926;2023-03-04T02:22:12;18.64;43.53
65239;SHT30;51827;51.186;6.926;2023-03-04T02:24:30;18.65;43.49
65239;SHT30;51827;51.186;6.926;2023-03-04T02:25:35;18.64;43.56
65239;SHT30;51827;51.186;6.926;2023-03-04T02:26:37;18.65;43.55
65239;SHT30;51827;51.186;6.926;2023-03-04T02:27:37;18.68;43.54
65239;SHT30;51827;51.186;6.926;2023-03-04T02:28:37;18.61;43.57
65239;SHT30;51827;51.186;6.926;2023-03-04T02:29:38;18.61;43.59
65239;SHT30;51827;51.186;6.926;2023-03-04T02:30:38;18.62;43.53
65239;SHT30;51827;51.186;6.926;2023-03-04T02:32:39;18.64;43.56
65239;SHT30;51827;51.186;6.926;2023-03-04T02:33:39;18.64;43.62
65239;SHT30;51827;51.186;6.926;2023-03-04T02:34:43;18.62;43.55
65239;SHT30;51827;51.186;6.926;2023-03-04T02:35:44;18.64;43.53
65239;SHT30;51827;51.186;6.926;2023-03-04T02:36:45;18.62;43.58
65239;SHT30;51827;51.186;6.926;2023-03-04T02:37:45;18.64;43.52
65239;SHT30;51827;51.186;6.926;2023-03-04T02:38:46;18.65;43.59
65239;SHT30;51827;51.186;6.926;2023-03-04T02:39:46;18.64;43.59
65239;SHT30;51827;51.186;6.926;2023-03-04T02:40:47;18.65;43.53
65239;SHT30;51827;51.186;6.926;2023-03-04T02:41:50;18.62;43.56
65239;SHT30;51827;51.186;6.926;2023-03-04T02:42:50;18.62;43.57
65239;SHT30;51827;51.186;6.926;2023-03-04T02:43:51;18.62;43.55
65239;SHT30;51827;51.186;6.926;2023-03-04T02:44:58;18.66;43.55
65239;SHT30;51827;51.186;6.926;2023-03-04T02:45:58;18.62;43.58
65239;SHT30;51827;51.186;6.926;2023-03-04T02:46:59;18.64;43.55
65239;SHT30;51827;51.186;6.926;2023-03-04T02:47:59;18.65;43.57
65239;SHT30;51827;51.186;6.926;2023-03-04T02:48:59;18.62;43.55
65239;SHT30;51827;51.186;6.926;2023-03-04T02:49:59;18.65;43.56
65239;SHT30;51827;51.186;6.926;2023-03-04T02:51:00;18.62;43.55
65239;SHT30;51827;51.186;6.926;2023-03-04T02:52:05;18.64;43.52
65239;SHT30;51827;51.186;6.926;2023-03-04T02:53:05;18.65;43.55
65239;SHT30;51827;51.186;6.926;2023-03-04T02:54:15;18.65;43.58
65239;SHT30;51827;51.186;6.926;2023-03-04T02:55:16;18.64;43.59
65239;SHT30;51827;51.186;6.926;2023-03-04T02:56:16;18.62;43.57
65239;SHT30;51827;51.186;6.926;2023-03-04T02:57:16;18.61;43.59
65239;SHT30;51827;51.186;6.926;2023-03-04T02:58:16;18.61;43.58
65239;SHT30;51827;51.186;6.926;2023-03-04T02:59:17;18.64;43.60
65239;SHT30;51827;51.186;6.926;2023-03-04T03:00:17;18.61;43.62
65239;SHT30;51827;51.186;6.926;2023-03-04T03:01:17;18.65;43.57
65239;SHT30;51827;51.186;6.926;2023-03-04T03:02:18;18.62;43.61
65239;SHT30;51827;51.186;6.926;2023-03-04T03:03:18;18.65;43.62
65239;SHT30;51827;51.186;6.926;2023-03-04T03:04:18;18.62;43.63
65239;SHT30;51827;51.186;6.926;2023-03-04T03:05:19;18.61;43.64
65239;SHT30;51827;51.186;6.926;2023-03-04T03:06:19;18.62;43.62
65239;SHT30;51827;51.186;6.926;2023-03-04T03:07:19;18.61;43.64
65239;SHT30;51827;51.186;6.926;2023-03-04T03:08:19;18.62;43.64
65239;SHT30;51827;51.186;6.926;2023-03-04T03:09:20;18.61;43.62
65239;SHT30;51827;51.186;6.926;2023-03-04T03:10:20;18.64;43.60
65239;SHT30;51827;51.186;6.926;2023-03-04T03:11:20;18.62;43.61
65239;SHT30;51827;51.186;6.926;2023-03-04T03:12:20;18.64;43.64
65239;SHT30;51827;51.186;6.926;2023-03-04T03:13:20;18.62;43.62
65239;SHT30;51827;51.186;6.926;2023-03-04T03:14:20;18.62;43.62
65239;SHT30;51827;51.186;6.926;2023-03-04T03:15:21;18.64;43.63
65239;SHT30;51827;51.186;6.926;2023-03-04T03:16:21;18.62;43.61
65239;SHT30;51827;51.186;6.926;2023-03-04T03:17:21;18.64;43.63
65239;SHT30;51827;51.186;6.926;2023-03-04T03:18:21;18.59;43.65
65239;SHT30;51827;51.186;6.926;2023-03-04T03:19:21;18.61;43.69
65239;SHT30;51827;51.186;6.926;2023-03-04T03:20:22;18.61;43.65
65239;SHT30;51827;51.186;6.926;2023-03-04T03:21:22;18.64;43.66
65239;SHT30;51827;51.186;6.926;2023-03-04T03:22:22;18.62;43.65
65239;SHT30;51827;51.186;6.926;2023-03-04T03:23:23;18.62;43.60
65239;SHT30;51827;51.186;6.926;2023-03-04T03:24:23;18.62;43.63
65239;SHT30;51827;51.186;6.926;2023-03-04T03:25:23;18.62;43.63
65239;SHT30;51827;51.186;6.926;2023-03-04T03:26:23;18.61;43.65
65239;SHT30;51827;51.186;6.926;2023-03-04T03:27:23;18.61;43.65
65239;SHT30;51827;51.186;6.926;2023-03-04T03:28:23;18.61;43.65
65239;SHT30;51827;51.186;6.926;2023-03-04T03:29:24;18.58;43.67
65239;SHT30;51827;51.186;6.926;2023-03-04T03:30:24;18.62;43.65
65239;SHT30;51827;51.186;6.926;2023-03-04T03:31:24;18.58;43.69
65239;SHT30;51827;51.186;6.926;2023-03-04T03:32:24;18.59;43.67
65239;SHT30;51827;51.186;6.926;2023-03-04T03:33:24;18.59;43.68
65239;SHT30;51827;51.186;6.926;2023-03-04T03:34:25;18.55;43.71
65239;SHT30;51827;51.186;6.926;2023-03-04T03:35:25;18.58;43.69
65239;SHT30;51827;51.186;6.926;2023-03-04T03:36:25;18.58;43.69
65239;SHT30;51827;51.186;6.926;2023-03-04T03:37:25;18.59;43.71
65239;SHT30;51827;51.186;6.926;2023-03-04T03:38:26;18.59;43.69
65239;SHT30;51827;51.186;6.926;2023-03-04T03:39:26;18.58;43.69
65239;SHT30;51827;51.186;6.926;2023-03-04T03:40:26;18.59;43.67
65239;SHT30;51827;51.186;6.926;2023-03-04T03:41:26;18.61;43.64
65239;SHT30;51827;51.186;6.926;2023-03-04T03:42:26;18.61;43.65
65239;SHT30;51827;51.186;6.926;2023-03-04T03:43:26;18.62;43.68
65239;SHT30;51827;51.186;6.926;2023-03-04T03:44:27;18.64;43.64
65239;SHT30;51827;51.186;6.926;2023-03-04T03:45:27;18.64;43.64
65239;SHT30;51827;51.186;6.926;2023-03-04T03:46:27;18.62;43.63
65239;SHT30;51827;51.186;6.926;2023-03-04T03:47:27;18.62;43.65
65239;SHT30;51827;51.186;6.926;2023-03-04T03:48:27;18.61;43.70
65239;SHT30;51827;51.186;6.926;2023-03-04T03:49:27;18.62;43.61
65239;SHT30;51827;51.186;6.926;2023-03-04T03:50:27;18.61;43.66
65239;SHT30;51827;51.186;6.926;2023-03-04T03:51:28;18.62;43.64
65239;SHT30;51827;51.186;6.926;2023-03-04T03:52:28;18.59;43.69
65239;SHT30;51827;51.186;6.926;2023-03-04T03:53:28;18.59;43.69
65239;SHT30;51827;51.186;6.926;2023-03-04T03:54:28;18.59;43.67
65239;SHT30;51827;51.186;6.926;2023-03-04T03:55:28;18.59;43.69
65239;SHT30;51827;51.186;6.926;2023-03-04T03:56:28;18.61;43.72
65239;SHT30;51827;51.186;6.926;2023-03-04T03:57:29;18.61;43.71
65239;SHT30;51827;51.186;6.926;2023-03-04T03:58:29;18.62;43.66
65239;SHT30;51827;51.186;6.926;2023-03-04T03:59:29;18.61;43.65
65239;SHT30;51827;51.186;6.926;2023-03-04T04:00:29;18.62;43.70
65239;SHT30;51827;51.186;6.926;2023-03-04T04:01:29;18.59;43.65
65239;SHT30;51827;51.186;6.926;2023-03-04T04:02:30;18.59;43.63
65239;SHT30;51827;51.186;6.926;2023-03-04T04:03:30;18.59;43.70
65239;SHT30;51827;51.186;6.926;2023-03-04T04:04:30;18.61;43.66
65239;SHT30;51827;51.186;6.926;2023-03-04T04:05:30;18.59;43.69
65239;SHT30;51827;51.186;6.926;2023-03-04T04:06:30;18.59;43.69
65239;SHT30;51827;51.186;6.926;2023-03-04T04:07:30;18.58;43.69
65239;SHT30;51827;51.186;6.926;2023-03-04T04:08:31;18.61;43.69
65239;SHT30;51827;51.186;6.926;2023-03-04T04:09:31;18.59;43.73
65239;SHT30;51827;51.186;6.926;2023-03-04T04:10:31;18.58;43.71
65239;SHT30;51827;51.186;6.926;2023-03-04T04:11:31;18.58;43.67
65239;SHT30;51827;51.186;6.926;2023-03-04T04:12:32;18.56;43.66
65239;SHT30;51827;51.186;6.926;2023-03-04T04:13:32;18.55;43.69
65239;SHT30;51827;51.186;6.926;2023-03-04T04:14:32;18.59;43.68
65239;SHT30;51827;51.186;6.926;2023-03-04T04:15:32;18.56;43.72
65239;SHT30;51827;51.186;6.926;2023-03-04T04:16:32;18.59;43.73
65239;SHT30;51827;51.186;6.926;2023-03-04T04:17:33;18.56;43.72
65239;SHT30;51827;51.186;6.926;2023-03-04T04:18:33;18.55;43.72
65239;SHT30;51827;51.186;6.926;2023-03-04T04:19:33;18.58;43.71
65239;SHT30;51827;51.186;6.926;2023-03-04T04:20:33;18.58;43.68
65239;SHT30;51827;51.186;6.926;2023-03-04T04:21:33;18.58;43.72
65239;SHT30;51827;51.186;6.926;2023-03-04T04:22:34;18.58;43.72
65239;SHT30;51827;51.186;6.926;2023-03-04T04:23:34;18.59;43.67
65239;SHT30;51827;51.186;6.926;2023-03-04T04:24:34;18.59;43.67
65239;SHT30;51827;51.186;6.926;2023-03-04T04:25:34;18.56;43.71
65239;SHT30;51827;51.186;6.926;2023-03-04T04:26:34;18.55;43.72
65239;SHT30;51827;51.186;6.926;2023-03-04T04:27:35;18.59;43.69
65239;SHT30;51827;51.186;6.926;2023-03-04T04:28:35;18.59;43.69
65239;SHT30;51827;51.186;6.926;2023-03-04T04:29:35;18.61;43.69
65239;SHT30;51827;51.186;6.926;2023-03-04T04:30:35;18.58;43.72
65239;SHT30;51827;51.186;6.926;2023-03-04T04:31:35;18.59;43.67
65239;SHT30;51827;51.186;6.926;2023-03-04T04:32:36;18.55;43.72
65239;SHT30;51827;51.186;6.926;2023-03-04T04:33:36;18.58;43.73
65239;SHT30;51827;51.186;6.926;2023-03-04T04:34:37;18.58;43.69
65239;SHT30;51827;51.186;6.926;2023-03-04T04:35:37;18.56;43.69
65239;SHT30;51827;51.186;6.926;2023-03-04T04:36:38;18.59;43.71
65239;SHT30;51827;51.186;6.926;2023-03-04T04:37:38;18.59;43.65
65239;SHT30;51827;51.186;6.926;2023-03-04T04:38:38;18.59;43.69
65239;SHT30;51827;51.186;6.926;2023-03-04T04:39:38;18.59;43.70
65239;SHT30;51827;51.186;6.926;2023-03-04T04:40:38;18.58;43.71
65239;SHT30;51827;51.186;6.926;2023-03-04T04:41:39;18.58;43.71
65239;SHT30;51827;51.186;6.926;2023-03-04T04:42:40;18.56;43.74
65239;SHT30;51827;51.186;6.926;2023-03-04T04:43:40;18.55;43.74
65239;SHT30;51827;51.186;6.926;2023-03-04T04:44:40;18.55;43.75
65239;SHT30;51827;51.186;6.926;2023-03-04T04:45:40;18.56;43.74
65239;SHT30;51827;51.186;6.926;2023-03-04T04:46:41;18.55;43.74
65239;SHT30;51827;51.186;6.926;2023-03-04T04:47:41;18.56;43.75
65239;SHT30;51827;51.186;6.926;2023-03-04T04:48:41;18.58;43.73
65239;SHT30;51827;51.186;6.926;2023-03-04T04:49:42;18.56;43.72
65239;SHT30;51827;51.186;6.926;2023-03-04T04:50:42;18.58;43.72
65239;SHT30;51827;51.186;6.926;2023-03-04T04:51:42;18.59;43.71
65239;SHT30;51827;51.186;6.926;2023-03-04T04:52:42;18.56;43.71
65239;SHT30;51827;51.186;6.926;2023-03-04T04:53:42;18.58;43.65
65239;SHT30;51827;51.186;6.926;2023-03-04T04:54:43;18.61;43.67
65239;SHT30;51827;51.186;6.926;2023-03-04T04:55:43;18.59;43.72
65239;SHT30;51827;51.186;6.926;2023-03-04T04:56:43;18.58;43.66
65239;SHT30;51827;51.186;6.926;2023-03-04T04:57:43;18.56;43.68
65239;SHT30;51827;51.186;6.926;2023-03-04T04:58:44;18.58;43.72
65239;SHT30;51827;51.186;6.926;2023-03-04T04:59:44;18.59;43.69
65239;SHT30;51827;51.186;6.926;2023-03-04T05:00:44;18.58;43.71
65239;SHT30;51827;51.186;6.926;2023-03-04T05:01:44;18.56;43.72
65239;SHT30;51827;51.186;6.926;2023-03-04T05:02:45;18.59;43.69
65239;SHT30;51827;51.186;6.926;2023-03-04T05:03:45;18.56;43.72
65239;SHT30;51827;51.186;6.926;2023-03-04T05:04:45;18.56;43.74
65239;SHT30;51827;51.186;6.926;2023-03-04T05:05:45;18.58;43.70
65239;SHT30;51827;51.186;6.926;2023-03-04T05:06:45;18.58;43.72
65239;SHT30;51827;51.186;6.926;2023-03-04T05:07:45;18.58;43.73
65239;SHT30;51827;51.186;6.926;2023-03-04T05:08:46;18.58;43.74
65239;SHT30;51827;51.186;6.926;2023-03-04T05:09:46;18.56;43.74
65239;SHT30;51827;51.186;6.926;2023-03-04T05:10:46;18.56;43.68
65239;SHT30;51827;51.186;6.926;2023-03-04T05:11:46;18.58;43.74
65239;SHT30;51827;51.186;6.926;2023-03-04T05:12:46;18.59;43.75
65239;SHT30;51827;51.186;6.926;2023-03-04T05:13:47;18.54;43.77
65239;SHT30;51827;51.186;6.926;2023-03-04T05:14:47;18.55;43.75
65239;SHT30;51827;51.186;6.926;2023-03-04T05:15:49;18.55;43.75
65239;SHT30;51827;51.186;6.926;2023-03-04T05:16:49;18.56;43.73
65239;SHT30;51827;51.186;6.926;2023-03-04T05:17:49;18.56;43.74
65239;SHT30;51827;51.186;6.926;2023-03-04T05:18:50;18.56;43.72
65239;SHT30;51827;51.186;6.926;2023-03-04T05:19:50;18.56;43.75
65239;SHT30;51827;51.186;6.926;2023-03-04T05:20:54;18.58;43.75
65239;SHT30;51827;51.186;6.926;2023-03-04T05:21:54;18.56;43.73
65239;SHT30;51827;51.186;6.926;2023-03-04T05:22:54;18.55;43.75
65239;SHT30;51827;51.186;6.926;2023-03-04T05:23:54;18.55;43.76
65239;SHT30;51827;51.186;6.926;2023-03-04T05:24:55;18.56;43.79
65239;SHT30;51827;51.186;6.926;2023-03-04T05:25:55;18.56;43.78
65239;SHT30;51827;51.186;6.926;2023-03-04T05:26:55;18.58;43.76
65239;SHT30;51827;51.186;6.926;2023-03-04T05:27:55;18.58;43.72
65239;SHT30;51827;51.186;6.926;2023-03-04T05:28:55;18.56;43.74
65239;SHT30;51827;51.186;6.926;2023-03-04T05:29:55;18.56;43.78
65239;SHT30;51827;51.186;6.926;2023-03-04T05:30:56;18.55;43.77
65239;SHT30;51827;51.186;6.926;2023-03-04T05:31:56;18.58;43.79
65239;SHT30;51827;51.186;6.926;2023-03-04T05:32:56;18.55;43.75
65239;SHT30;51827;51.186;6.926;2023-03-04T05:33:56;18.55;43.78
65239;SHT30;51827;51.186;6.926;2023-03-04T05:34:56;18.56;43.79
65239;SHT30;51827;51.186;6.926;2023-03-04T05:35:56;18.55;43.80
65239;SHT30;51827;51.186;6.926;2023-03-04T05:36:57;18.56;43.82
65239;SHT30;51827;51.186;6.926;2023-03-04T05:37:57;18.56;43.78
65239;SHT30;51827;51.186;6.926;2023-03-04T05:38:57;18.56;43.76
65239;SHT30;51827;51.186;6.926;2023-03-04T05:39:57;18.55;43.75
65239;SHT30;51827;51.186;6.926;2023-03-04T05:40:58;18.56;43.75
65239;SHT30;51827;51.186;6.926;2023-03-04T05:41:58;18.56;43.75
65239;SHT30;51827;51.186;6.926;2023-03-04T05:42:59;18.56;43.70
65239;SHT30;51827;51.186;6.926;2023-03-04T05:43:59;18.56;43.78
65239;SHT30;51827;51.186;6.926;2023-03-04T05:44:59;18.56;43.76
65239;SHT30;51827;51.186;6.926;2023-03-04T05:45:59;18.56;43.75
65239;SHT30;51827;51.186;6.926;2023-03-04T05:46:59;18.58;43.75
65239;SHT30;51827;51.186;6.926;2023-03-04T05:48:00;18.56;43.79
65239;SHT30;51827;51.186;6.926;2023-03-04T05:49:00;18.56;43.80
65239;SHT30;51827;51.186;6.926;2023-03-04T05:50:00;18.54;43.75
65239;SHT30;51827;51.186;6.926;2023-03-04T05:51:00;18.58;43.80
65239;SHT30;51827;51.186;6.926;2023-03-04T05:52:01;18.55;43.79
65239;SHT30;51827;51.186;6.926;2023-03-04T05:53:01;18.54;43.76
65239;SHT30;51827;51.186;6.926;2023-03-04T05:54:01;18.55;43.78
65239;SHT30;51827;51.186;6.926;2023-03-04T05:55:01;18.58;43.74
65239;SHT30;51827;51.186;6.926;2023-03-04T05:56:05;18.55;43.78
65239;SHT30;51827;51.186;6.926;2023-03-04T05:57:06;18.56;43.76
65239;SHT30;51827;51.186;6.926;2023-03-04T05:58:06;18.56;43.79
65239;SHT30;51827;51.186;6.926;2023-03-04T05:59:06;18.58;43.78
65239;SHT30;51827;51.186;6.926;2023-03-04T06:00:06;18.56;43.80
65239;SHT30;51827;51.186;6.926;2023-03-04T06:01:07;18.55;43.79
65239;SHT30;51827;51.186;6.926;2023-03-04T06:02:07;18.58;43.78
65239;SHT30;51827;51.186;6.926;2023-03-04T06:03:12;18.54;43.81
65239;SHT30;51827;51.186;6.926;2023-03-04T06:04:13;18.55;43.79
65239;SHT30;51827;51.186;6.926;2023-03-04T06:05:14;18.58;43.75
65239;SHT30;51827;51.186;6.926;2023-03-04T06:06:14;18.55;43.78
65239;SHT30;51827;51.186;6.926;2023-03-04T06:07:14;18.56;43.76
65239;SHT30;51827;51.186;6.926;2023-03-04T06:08:14;18.55;43.74
65239;SHT30;51827;51.186;6.926;2023-03-04T06:09:14;18.56;43.74
65239;SHT30;51827;51.186;6.926;2023-03-04T06:10:15;18.52;43.80
65239;SHT30;51827;51.186;6.926;2023-03-04T06:11:16;18.55;43.77
65239;SHT30;51827;51.186;6.926;2023-03-04T06:12:16;18.55;43.78
65239;SHT30;51827;51.186;6.926;2023-03-04T06:13:16;18.55;43.77
65239;SHT30;51827;51.186;6.926;2023-03-04T06:14:16;18.56;43.74
65239;SHT30;51827;51.186;6.926;2023-03-04T06:15:16;18.56;43.72
65239;SHT30;51827;51.186;6.926;2023-03-04T06:16:16;18.55;43.81
65239;SHT30;51827;51.186;6.926;2023-03-04T06:17:17;18.58;43.75
65239;SHT30;51827;51.186;6.926;2023-03-04T06:18:17;18.56;43.70
65239;SHT30;51827;51.186;6.926;2023-03-04T06:19:17;18.55;43.71
65239;SHT30;51827;51.186;6.926;2023-03-04T06:20:17;18.55;43.73
65239;SHT30;51827;51.186;6.926;2023-03-04T06:21:17;18.56;43.73
65239;SHT30;51827;51.186;6.926;2023-03-04T06:22:17;18.56;43.69
65239;SHT30;51827;51.186;6.926;2023-03-04T06:23:18;18.55;43.72
65239;SHT30;51827;51.186;6.926;2023-03-04T06:24:18;18.56;43.69
65239;SHT30;51827;51.186;6.926;2023-03-04T06:25:18;18.54;43.72